TimeCST,TemperatureF,Dew PointF,Humidity,Sea Level PressureIn,VisibilityMPH,Wind Direction,Wind SpeedMPH,Gust SpeedMPH,PrecipitationIn,Events,Conditions,WindDirDegrees,DateUTC
12:17 AM,48.2,37.4,66,29.94,10.0,East,8.1,-,N/A,,Overcast,80,2013-11-05 06:17:00
12:53 AM,48.0,39.0,71,29.88,10.0,East,4.6,-,0.00,Rain,Light Rain,80,2013-11-05 06:53:00
1:28 AM,48.2,39.2,71,29.92,10.0,East,4.6,-,0.00,Rain-Thunderstorm,Light Rain,90,2013-11-05 07:28:00
1:53 AM,46.0,41.0,83,29.89,8.0,NW,12.7,16.1,0.02,Rain,Light Rain,310,2013-11-05 07:53:00
2:53 AM,45.0,43.0,93,29.88,10.0,NNE,4.6,-,0.11,Rain,Light Rain,30,2013-11-05 08:53:00
3:05 AM,44.6,42.8,93,29.91,7.0,NE,5.8,-,0.01,Rain-Thunderstorm,Rain,50,2013-11-05 09:05:00
3:12 AM,44.6,42.8,93,29.90,7.0,NE,8.1,-,0.02,Rain-Thunderstorm,Light Rain,50,2013-11-05 09:12:00
3:20 AM,44.6,42.8,93,29.91,10.0,ENE,4.6,-,0.03,Rain,Light Rain,60,2013-11-05 09:20:00
3:53 AM,46.0,44.1,93,29.84,10.0,ENE,4.6,-,0.03,,Overcast,60,2013-11-05 09:53:00
4:19 AM,46.4,44.6,93,29.89,10.0,ENE,3.5,-,0.00,,Overcast,60,2013-11-05 10:19:00
4:53 AM,46.9,44.1,90,29.81,10.0,East,6.9,-,0.00,Rain,Light Rain,90,2013-11-05 10:53:00
5:07 AM,46.4,44.6,93,29.87,10.0,Calm,Calm,-,0.00,Rain,Light Rain,0,2013-11-05 11:07:00
5:19 AM,46.4,44.6,93,29.87,10.0,NNW,3.5,-,0.00,Rain,Light Rain,330,2013-11-05 11:19:00
5:30 AM,46.4,44.6,93,29.87,10.0,NNW,5.8,-,0.00,Rain,Light Rain,340,2013-11-05 11:30:00
5:53 AM,46.9,45.0,93,29.83,6.0,NNE,3.5,-,0.01,Rain,Light Rain,30,2013-11-05 11:53:00
6:05 AM,46.4,44.6,93,29.87,9.0,North,4.6,-,0.00,Rain,Light Rain,350,2013-11-05 12:05:00
6:53 AM,48.0,46.0,93,29.83,10.0,Calm,Calm,-,0.00,,Overcast,0,2013-11-05 12:53:00
7:53 AM,48.0,46.0,93,29.82,6.0,Calm,Calm,-,N/A,,Overcast,0,2013-11-05 13:53:00
8:53 AM,50.0,46.9,89,29.84,10.0,Calm,Calm,-,N/A,,Overcast,0,2013-11-05 14:53:00
9:50 AM,51.8,48.2,88,29.89,4.0,SSW,5.8,-,0.00,,Overcast,200,2013-11-05 15:50:00
9:53 AM,51.1,48.9,92,29.85,4.0,South,5.8,-,0.00,,Overcast,190,2013-11-05 15:53:00
10:04 AM,51.8,50.0,94,29.89,3.0,SSW,4.6,-,N/A,,Overcast,200,2013-11-05 16:04:00
10:46 AM,55.4,53.6,94,29.87,5.0,South,12.7,-,0.00,Rain,Light Rain,190,2013-11-05 16:46:00
10:53 AM,55.9,53.1,90,29.82,6.0,South,12.7,-,0.00,,Overcast,190,2013-11-05 16:53:00
11:23 AM,57.2,53.6,88,29.86,8.0,South,16.1,21.9,N/A,,Overcast,190,2013-11-05 17:23:00
11:27 AM,57.2,53.6,88,29.86,8.0,South,15.0,21.9,N/A,,Overcast,190,2013-11-05 17:27:00
11:53 AM,59.0,54.0,83,29.81,10.0,SSW,20.7,-,N/A,,Overcast,200,2013-11-05 17:53:00
12:15 PM,53.6,50.0,88,29.87,7.0,NW,11.5,-,N/A,,Overcast,310,2013-11-05 18:15:00
12:32 PM,53.6,51.8,94,29.87,6.0,WNW,12.7,-,N/A,,Overcast,300,2013-11-05 18:32:00
12:53 PM,53.1,50.0,89,29.83,6.0,NW,10.4,-,N/A,,Overcast,310,2013-11-05 18:53:00
1:06 PM,53.6,51.8,94,29.87,5.0,WNW,10.4,-,0.00,Rain,Light Rain,300,2013-11-05 19:06:00
1:27 PM,53.6,51.8,94,29.87,7.0,NW,8.1,-,0.01,,Overcast,310,2013-11-05 19:27:00
1:36 PM,55.4,51.8,88,29.87,8.0,NW,9.2,-,0.01,,Overcast,320,2013-11-05 19:36:00
1:53 PM,55.9,50.0,80,29.83,10.0,NW,9.2,-,0.01,,Overcast,320,2013-11-05 19:53:00
2:07 PM,51.8,44.6,76,29.88,10.0,NNW,23.0,29.9,N/A,,Overcast,330,2013-11-05 20:07:00
2:53 PM,48.9,41.0,74,29.88,10.0,NNW,20.7,32.2,N/A,,Overcast,330,2013-11-05 20:53:00
3:13 PM,50.0,39.2,66,29.91,10.0,NNW,24.2,31.1,N/A,,Overcast,340,2013-11-05 21:13:00
3:53 PM,50.0,39.9,68,29.91,10.0,NNW,21.9,31.1,N/A,,Overcast,340,2013-11-05 21:53:00
4:53 PM,46.9,36.0,66,29.95,10.0,North,25.3,32.2,N/A,,Overcast,350,2013-11-05 22:53:00
5:53 PM,45.0,35.1,68,30.00,10.0,North,21.9,32.2,N/A,,Overcast,350,2013-11-05 23:53:00
6:53 PM,43.0,33.1,68,30.05,10.0,North,21.9,29.9,N/A,,Overcast,360,2013-11-06 00:53:00
7:53 PM,42.1,33.1,70,30.08,10.0,North,27.6,35.7,N/A,,Mostly Cloudy,350,2013-11-06 01:53:00
8:53 PM,41.0,32.0,70,30.10,10.0,North,18.4,24.2,N/A,,Overcast,350,2013-11-06 02:53:00
9:53 PM,41.0,32.0,70,30.13,10.0,North,15.0,23.0,N/A,,Mostly Cloudy,350,2013-11-06 03:53:00
10:53 PM,39.9,30.9,70,30.14,10.0,North,18.4,-,N/A,,Mostly Cloudy,350,2013-11-06 04:53:00
11:53 PM,37.0,32.0,82,30.15,10.0,NNW,8.1,-,N/A,,Mostly Cloudy,330,2013-11-06 05:53:00